x

St. Augustine, Fl (sauf1) Weather Station

3:00pm - Sun 28th Aug 2016 All times are EDT. -4 hours from GMT.

  • Wind
    15mph, 17mph gusts
  • Sea Temp 85°f
  • Air Temp 82°f
  • Sea Pressure 1017mb
  • St. Augustine, Fl
  • St. Augustine, Fl

More Historic Weather Station data

Upgrade to MSW Pro to gain access to the past 30 days of data for over 8000 Wavebouys and Weather Stations around the globe.

Join Pro

Comparision Forecast

View Surf forecast
   
Sun 08/28 3:00pm 15 17 mph 1017mb 85f 82f
2:00pm 15
mph
1017.7mb 85f 82f
1:00pm 17 18 mph 1018mb 85f 82f
12:00pm 15 16 mph 1018.5mb 84f 83f
11:00am 14 15 mph 1018.5mb 84f 83f
10:00am 15 16 mph 1018.3mb 83f 83f
9:00am 9 11 mph 1018.1mb 83f 80f
8:00am 10 11 mph 1017.7mb 83f 81f
7:00am 14 16 mph 1017.3mb 83f 81f
6:00am 18 21 mph 1017.3mb 84f 79f
5:00am 15 16 mph 1016.7mb 84f 81f
4:00am 18 20 mph 1016.5mb 84f 81f
3:00am 16 17 mph 1016.4mb 84f 81f
2:00am 14 15 mph 1016.5mb 84f 82f
1:00am 11 14 mph 1016.9mb 84f 82f
12:00am 10 11 mph 1017.3mb 84f 82f
Sat 08/27 11:00pm 11
mph
1017.5mb 84f 82f
10:00pm 11 13 mph 1017.1mb 84f 83f
9:00pm 13 14 mph 1016.4mb 85f 83f
8:00pm  -  2 mph 1016mb 85f 82f
7:00pm 8 9 mph 1015.8mb 85f 81f
6:00pm 10
mph
1015.7mb 85f 83f
5:00pm 11
mph
1015.7mb 85f 83f
4:00pm 10 11 mph 1015.9mb 85f 82f
3:00pm 11 13 mph 1016.3mb 84f 82f
2:00pm 9 10 mph 1016.9mb 84f 82f
1:00pm 16 18 mph 1017.1mb 84f 82f
12:00pm 16 17 mph 1017.2mb 84f 82f
11:00am 17 18 mph 1017.5mb 83f 81f
10:00am 17 18 mph 1017.3mb 83f 81f
9:00am 20 22 mph 1017.1mb 83f 81f
8:00am 18 20 mph 1016.6mb 83f 81f
7:00am 17 20 mph 1016.2mb 83f 81f
6:00am 17 18 mph 1015.6mb 83f 81f
5:00am 16 17 mph 1015.6mb 83f 81f
4:00am 10 11 mph 1016mb 83f 81f
3:00am 10 11 mph 1016.3mb 83f 81f
2:00am 10
mph
1016.9mb 83f 81f
1:00am 13
mph
1017.7mb 83f 82f
12:00am 14
mph
1017.9mb 83f 82f
Fri 08/26 11:00pm 14 15 mph 1018mb 83f 82f
10:00pm 11 13 mph 1018mb 84f 82f
9:00pm 11 14 mph 1017.3mb 84f 82f
8:00pm 14
mph
1017.1mb 84f 83f
7:00pm 15 17 mph 1016.5mb 84f 83f
6:00pm 15 16 mph 1016.6mb 85f 82f
5:00pm 16 17 mph 1016.8mb 85f 82f
4:00pm 14 15 mph 1017.2mb 84f 83f
3:00pm 16 18 mph 1017.7mb 84f 83f
2:00pm 16 17 mph 1018.1mb 84f 82f
1:00pm 17 20 mph 1018.4mb 84f 82f
12:00pm 15 16 mph 1018.5mb 83f 82f
11:00am 14 16 mph 1018.6mb 83f 83f
10:00am 13 14 mph 1018.7mb 83f 81f
9:00am 15 16 mph 1018.5mb 83f 80f
8:00am 15 16 mph 1018.3mb 82f 82f
7:00am 16 17 mph 1017.6mb 83f 82f
6:00am 15 17 mph 1017.4mb 83f 82f
5:00am 14 15 mph 1017.2mb 83f 82f
4:00am 15 16 mph 1017.5mb 83f 82f
3:00am 14 15 mph 1017.6mb 83f 82f
2:00am 16 17 mph 1018mb 83f 82f
1:00am 15 16 mph 1018.2mb 83f 82f
12:00am 15 16 mph 1018.2mb 83f 81f
Thu 08/25 11:00pm 18 20 mph 1018.1mb 83f 80f
10:00pm 21 23 mph 1018mb 83f 81f
9:00pm 16 18 mph 1018mb 83f 82f
8:00pm 20 22 mph 1017.9mb 84f 83f
7:00pm 20 22 mph 1017.7mb 84f 81f
6:00pm 21 22 mph 1017.7mb 84f 82f
5:00pm 21 22 mph 1018.1mb 84f 82f
4:00pm 18 20 mph 1018.3mb 84f 82f
3:00pm 16 17 mph 1019.1mb 84f 82f
2:00pm 23 25 mph 1019.9mb 84f 79f
1:00pm 20 23 mph 1020.3mb 84f 82f
12:00pm 18 20 mph 1020.4mb 83f 81f
11:00am 16 17 mph 1020.6mb 83f 81f
10:00am 15 17 mph 1020.6mb 83f 82f
9:00am 16 17 mph 1020.2mb 83f 82f
8:00am 17
mph
1019.7mb 83f 81f
7:00am 17 18 mph 1018.8mb 83f 81f
6:00am 17 18 mph 1018.5mb 83f 82f
5:00am 17 20 mph 1018.3mb 83f 82f
4:00am 18 21 mph 1018.6mb 83f 82f
3:00am 17 18 mph 1019.2mb 83f 82f
2:00am 18 20 mph 1019.8mb 83f 82f
1:00am 21 23 mph 1020.3mb 83f 82f
12:00am 18 21 mph 1020.8mb 83f 82f
Wed 08/24 11:00pm 20 23 mph 1021.3mb 83f 81f
10:00pm 22 24 mph 1021.5mb 83f 82f
9:00pm 18 21 mph 1021.3mb 83f 82f